Time;durP1;ratioP1;P1;durP2;ratioP2;P2;SDS_P1;SDS_P2;PMS_P1;PMS_P2;Temp;Humidity;BMP_temperature;BMP_pressure;BME280_temperature;BME280_humidity;BME280_pressure;Samples;Min_cycle;Max_cycle;Signal;HPM_P1;HPM_P2
2023/02/04 00:01:21;;;;;;;122.78;43.58;;;;;;;7.17;45.72;99809.72;4996574;28;20272;-63
2023/02/04 00:03:47;;;;;;;96.40;35.85;;;;;;;7.24;46.74;99803.75;4996979;28;20391;-64
2023/02/04 00:06:12;;;;;;;37.33;15.60;;;;;;;7.28;46.49;99801.69;4996427;28;20244;-65
2023/02/04 00:08:38;;;;;;;18.63;10.88;;;;;;;7.30;46.43;99799.75;4997965;28;20038;-63
2023/02/04 00:11:04;;;;;;;21.20;10.70;;;;;;;7.33;46.71;99783.69;4996112;28;20038;-64
2023/02/04 00:13:29;;;;;;;17.08;9.07;;;;;;;7.35;46.83;99787.00;4995735;28;20336;-63
2023/02/04 00:15:54;;;;;;;13.23;8.73;;;;;;;7.29;45.83;99784.94;4996119;28;20048;-64
2023/02/04 00:18:20;;;;;;;13.88;8.77;;;;;;;7.27;46.01;99773.69;4997695;28;20030;-64
2023/02/04 00:20:45;;;;;;;12.55;7.82;;;;;;;7.17;45.56;99776.31;4994708;28;20646;-63
2023/02/04 00:23:11;;;;;;;14.43;6.95;;;;;;;7.14;46.00;99771.31;4995353;28;20062;-62
2023/02/04 00:25:36;;;;;;;11.20;7.30;;;;;;;7.05;45.09;99770.38;4993807;28;20355;-63
2023/02/04 00:28:02;;;;;;;11.88;7.70;;;;;;;7.10;45.35;99771.75;4994861;28;20050;-63
2023/02/04 00:30:28;;;;;;;10.18;7.30;;;;;;;7.21;44.73;99766.34;4996113;28;20093;-64
2023/02/04 00:32:55;;;;;;;11.65;7.05;;;;;;;7.29;44.54;99771.75;4996062;28;20276;-64
2023/02/04 00:35:24;;;;;;;17.05;8.25;;;;;;;7.25;44.49;99776.44;4996044;28;20037;-63
2023/02/04 00:37:50;;;;;;;20.30;10.10;;;;;;;7.30;44.22;99768.16;4997054;28;20050;-62
2023/02/04 00:40:16;;;;;;;16.00;7.93;;;;;;;7.23;44.34;99770.50;4994378;28;20035;-64
2023/02/04 00:42:41;;;;;;;15.77;8.10;;;;;;;7.20;44.38;99765.50;4995495;28;20081;-64
2023/02/04 00:45:08;;;;;;;14.50;8.90;;;;;;;7.20;44.17;99762.88;4995856;28;20230;-63
2023/02/04 00:47:33;;;;;;;17.52;8.63;;;;;;;7.23;44.54;99761.75;4995555;28;20385;-62
2023/02/04 00:49:59;;;;;;;11.70;7.70;;;;;;;7.22;44.22;99757.47;4996889;28;20591;-63
2023/02/04 00:52:24;;;;;;;10.70;7.80;;;;;;;7.22;44.74;99760.09;4996005;28;20034;-64
2023/02/04 00:54:50;;;;;;;18.25;8.35;;;;;;;7.29;43.96;99754.16;4997366;28;20049;-64
2023/02/04 00:57:15;;;;;;;10.07;7.40;;;;;;;7.23;44.65;99751.22;4995214;28;20031;-62
2023/02/04 00:59:41;;;;;;;12.40;7.60;;;;;;;7.28;43.45;99756.91;4996475;28;20065;-63
2023/02/04 01:02:06;;;;;;;10.80;6.85;;;;;;;7.31;43.57;99754.84;4994257;28;20332;-64
2023/02/04 01:04:32;;;;;;;10.85;6.65;;;;;;;7.31;43.79;99751.38;4996610;28;20046;-65
2023/02/04 01:06:57;;;;;;;12.15;7.72;;;;;;;7.22;44.52;99746.94;4995840;28;20196;-62
2023/02/04 01:09:23;;;;;;;9.90;6.88;;;;;;;7.15;44.15;99743.19;4996945;28;20033;-63
2023/02/04 01:11:48;;;;;;;11.55;7.63;;;;;;;7.21;44.89;99735.56;4994632;28;20268;-63
2023/02/04 01:14:14;;;;;;;10.18;6.88;;;;;;;7.35;44.30;99727.25;4996452;28;20032;-64
2023/02/04 01:16:40;;;;;;;10.20;6.90;;;;;;;7.36;43.88;99728.91;4995434;28;20092;-64
2023/02/04 01:19:05;;;;;;;10.60;6.20;;;;;;;7.33;44.41;99717.84;4994995;28;20042;-62
2023/02/04 01:21:31;;;;;;;11.90;7.97;;;;;;;7.33;45.30;99715.19;4994753;28;20026;-63
2023/02/04 01:23:56;;;;;;;11.43;7.13;;;;;;;7.41;45.57;99702.16;4994608;28;20401;-63
2023/02/04 01:26:22;;;;;;;9.75;6.68;;;;;;;7.43;46.11;99680.94;4995558;28;20049;-65
2023/02/04 01:28:47;;;;;;;14.32;7.75;;;;;;;7.55;46.14;99677.97;4994626;28;20049;-66
2023/02/04 01:31:13;;;;;;;15.50;8.68;;;;;;;7.62;45.41;99679.06;4993843;28;20244;-63
2023/02/04 01:33:39;;;;;;;12.82;7.53;;;;;;;7.66;45.60;99669.06;4995271;28;20081;-63
2023/02/04 01:36:05;;;;;;;14.07;7.90;;;;;;;7.71;45.41;99658.91;4995006;28;20383;-64
2023/02/04 01:38:30;;;;;;;9.05;6.93;;;;;;;7.63;46.88;99658.81;4992771;28;20031;-65
2023/02/04 01:40:57;;;;;;;11.35;8.68;;;;;;;7.61;48.72;99653.69;4993129;28;20030;-63
2023/02/04 01:43:23;;;;;;;13.93;8.77;;;;;;;7.67;48.53;99636.44;4994079;28;20286;-63
2023/02/04 01:45:50;;;;;;;12.50;8.68;;;;;;;7.62;45.18;99633.44;4994440;28;20276;-63
2023/02/04 01:48:19;;;;;;;11.15;6.93;;;;;;;7.60;44.73;99625.66;4994016;28;20030;-63
2023/02/04 01:51:05;;;;;;;11.40;7.05;;;;;;;7.50;44.77;99616.97;4993964;28;20038;-64
2023/02/04 01:53:31;;;;;;;15.15;8.80;;;;;;;7.40;45.83;99620.63;4994863;28;20046;-62
2023/02/04 01:55:56;;;;;;;13.25;7.75;;;;;;;7.22;48.20;99610.81;4993311;28;20403;-63
2023/02/04 01:58:22;;;;;;;11.10;7.82;;;;;;;7.28;48.92;99617.31;4993613;28;20030;-63
2023/02/04 02:00:48;;;;;;;14.55;7.88;;;;;;;7.38;48.44;99612.03;4994320;28;20035;-64
2023/02/04 02:03:13;;;;;;;13.50;8.15;;;;;;;7.41;48.78;99615.22;4991491;28;20336;-62
2023/02/04 02:05:45;;;;;;;12.18;7.43;;;;;;;7.29;49.88;99606.66;4991155;28;20031;-63
2023/02/04 02:08:12;;;;;;;11.55;7.43;;;;;;;7.33;49.75;99601.94;4991186;28;20168;-63
2023/02/04 02:10:40;;;;;;;15.13;7.85;;;;;;;7.41;49.18;99595.94;4993995;28;20702;-62
2023/02/04 02:13:09;;;;;;;12.57;7.75;;;;;;;7.27;49.44;99587.50;4993175;28;20355;-63
2023/02/04 02:15:34;;;;;;;11.43;7.38;;;;;;;7.38;49.46;99591.78;4993475;28;20385;-64
2023/02/04 02:18:00;;;;;;;12.15;7.15;;;;;;;7.48;49.00;99587.31;4994269;28;20042;-65
2023/02/04 02:20:28;;;;;;;13.10;8.20;;;;;;;7.40;48.64;99589.03;4993699;28;20240;-62
2023/02/04 02:23:11;;;;;;;16.50;9.02;;;;;;;7.15;49.82;99591.31;4994650;28;20114;-63
2023/02/04 02:25:37;;;;;;;12.80;8.63;;;;;;;7.05;49.62;99587.88;4993234;28;20415;-63
2023/02/04 02:28:10;;;;;;;14.68;8.65;;;;;;;6.91;49.77;99588.31;4993907;28;20044;-65
2023/02/04 02:30:36;;;;;;;14.35;8.30;;;;;;;6.92;49.68;99587.34;4994408;28;20060;-62
2023/02/04 02:33:02;;;;;;;13.85;8.68;;;;;;;6.84;50.48;99587.22;4994173;28;20030;-63
2023/02/04 02:35:28;;;;;;;13.02;7.75;;;;;;;6.82;50.48;99583.91;4993809;28;20296;-63
2023/02/04 02:37:53;;;;;;;14.23;7.13;;;;;;;6.91;49.82;99576.00;4992991;28;20108;-62
2023/02/04 02:40:19;;;;;;;11.90;7.53;;;;;;;6.94;49.02;99577.50;4991809;28;20057;-63
2023/02/04 02:42:48;;;;;;;12.80;7.43;;;;;;;6.78;49.38;99578.09;4994011;28;20034;-64
2023/02/04 02:45:22;;;;;;;12.18;7.55;;;;;;;6.81;49.21;99577.81;4992117;28;20211;-62
2023/02/04 02:47:48;;;;;;;12.63;7.70;;;;;;;6.88;48.62;99567.56;4992410;28;20038;-63
2023/02/04 02:50:16;;;;;;;11.48;7.70;;;;;;;7.03;47.87;99558.22;4992853;28;20389;-64
2023/02/04 02:52:42;;;;;;;11.77;7.40;;;;;;;7.19;47.45;99558.44;4994193;28;20061;-65
2023/02/04 02:55:19;;;;;;;13.98;7.20;;;;;;;7.19;46.87;99555.81;4993354;28;20391;-64
2023/02/04 02:57:46;;;;;;;14.45;7.75;;;;;;;7.31;47.44;99559.13;4991487;28;20081;-62
2023/02/04 03:00:19;;;;;;;10.63;8.23;;;;;;;7.39;48.23;99550.47;4994200;28;20046;-64
2023/02/04 03:03:00;;;;;;;15.32;7.43;;;;;;;7.45;47.50;99542.81;4993252;28;20069;-63
2023/02/04 03:05:29;;;;;;;11.00;7.18;;;;;;;7.51;47.60;99536.97;4992305;28;20078;-62
2023/02/04 03:07:54;;;;;;;11.60;7.78;;;;;;;7.58;47.74;99539.84;4991788;28;20153;-62
2023/02/04 03:10:20;;;;;;;11.68;7.55;;;;;;;7.62;47.13;99535.94;4991636;28;20145;-65
2023/02/04 03:12:46;;;;;;;10.52;7.90;;;;;;;7.62;47.26;99523.59;4990904;28;20096;-64
2023/02/04 03:15:13;;;;;;;11.93;7.10;;;;;;;7.60;47.14;99517.63;4992490;28;20267;-63
2023/02/04 03:17:40;;;;;;;11.20;7.40;;;;;;;7.63;46.68;99509.44;4991762;28;20050;-63
2023/02/04 03:20:06;;;;;;;12.70;7.90;;;;;;;7.63;46.55;99506.78;4993904;28;20357;-63
2023/02/04 03:22:32;;;;;;;11.70;7.43;;;;;;;7.59;45.96;99505.44;4993217;28;20053;-64
2023/02/04 03:24:58;;;;;;;14.13;7.75;;;;;;;7.59;45.98;99494.06;4993931;28;20053;-63
2023/02/04 03:27:23;;;;;;;13.13;7.90;;;;;;;7.62;46.40;99496.41;4992789;28;20045;-62
2023/02/04 03:29:49;;;;;;;12.30;7.40;;;;;;;7.54;46.66;99505.06;4994588;28;20440;-63
2023/02/04 03:32:15;;;;;;;10.98;7.75;;;;;;;7.58;47.14;99498.50;4993133;28;20054;-63
2023/02/04 03:34:40;;;;;;;13.25;7.68;;;;;;;7.48;46.65;99499.53;4993279;28;20037;-62
2023/02/04 03:37:06;;;;;;;11.25;7.38;;;;;;;7.40;47.00;99500.28;4992816;28;20037;-63
2023/02/04 03:39:31;;;;;;;9.57;7.78;;;;;;;7.25;47.89;99497.28;4994594;28;20236;-65
2023/02/04 03:42:00;;;;;;;12.65;8.05;;;;;;;7.14;48.09;99501.91;4992834;28;20421;-63
2023/02/04 03:44:28;;;;;;;12.90;7.40;;;;;;;7.07;48.17;99485.03;4992840;28;20042;-62
2023/02/04 03:46:54;;;;;;;13.73;7.25;;;;;;;7.09;48.15;99494.47;4993653;28;20548;-62
2023/02/04 03:49:23;;;;;;;12.45;7.35;;;;;;;7.17;47.53;99485.84;4992964;28;20386;-63
2023/02/04 03:51:49;;;;;;;11.00;6.82;;;;;;;7.21;47.32;99476.66;4993838;28;20073;-64
2023/02/04 03:54:14;;;;;;;9.93;6.88;;;;;;;7.32;46.19;99469.41;4992742;28;20041;-63
2023/02/04 03:56:40;;;;;;;11.75;6.60;;;;;;;7.32;45.66;99458.06;4993237;28;20141;-63
2023/02/04 03:59:05;;;;;;;10.35;6.13;;;;;;;7.20;45.23;99459.22;4993333;28;20038;-63
2023/02/04 04:01:31;;;;;;;9.98;5.80;;;;;;;7.13;46.52;99456.34;4997781;28;20046;-64
2023/02/04 04:03:56;;;;;;;9.80;6.45;;;;;;;6.93;46.98;99449.50;4995815;28;20050;-64
2023/02/04 04:06:21;;;;;;;9.13;6.38;;;;;;;6.94;48.43;99448.53;4994384;28;20034;-62
2023/02/04 04:08:47;;;;;;;10.90;6.70;;;;;;;6.75;48.64;99438.94;4996576;28;20030;-62
2023/02/04 04:11:13;;;;;;;11.55;7.40;;;;;;;6.75;49.48;99438.94;4996057;28;20044;-62
2023/02/04 04:13:38;;;;;;;28.30;13.45;;;;;;;6.67;49.19;99433.56;4996776;28;20050;-64
2023/02/04 04:16:04;;;;;;;23.40;12.35;;;;;;;6.61;49.92;99427.06;4996081;28;20283;-64
2023/02/04 04:18:31;;;;;;;18.10;9.82;;;;;;;6.64;49.39;99420.69;4993265;28;20026;-62
2023/02/04 04:20:57;;;;;;;14.25;8.25;;;;;;;6.60;49.21;99422.78;4996348;28;20050;-63
2023/02/04 04:23:23;;;;;;;13.65;7.70;;;;;;;6.67;49.36;99425.66;4996449;28;20046;-64
2023/02/04 04:25:48;;;;;;;13.48;7.13;;;;;;;6.81;49.39;99421.72;4995091;28;20039;-64
2023/02/04 04:28:14;;;;;;;12.70;7.10;;;;;;;6.84;48.30;99419.63;4996390;28;20324;-62
2023/02/04 04:30:39;;;;;;;10.00;6.32;;;;;;;6.96;47.84;99434.25;4996642;28;20093;-62
2023/02/04 04:33:05;;;;;;;13.10;7.28;;;;;;;7.11;48.25;99431.13;4997523;28;20050;-63
2023/02/04 04:35:30;;;;;;;13.18;7.22;;;;;;;7.18;47.51;99435.66;4996377;28;20034;-63
2023/02/04 04:37:56;;;;;;;14.02;8.23;;;;;;;7.21;46.76;99438.00;4997440;28;20042;-64
2023/02/04 04:40:21;;;;;;;12.13;7.18;;;;;;;7.20;47.27;99446.03;4996361;28;20034;-63
2023/02/04 04:42:46;;;;;;;13.35;8.35;;;;;;;7.13;48.42;99432.63;4996550;28;20097;-63
2023/02/04 04:45:13;;;;;;;11.07;7.53;;;;;;;7.09;47.28;99433.91;4996887;28;20307;-63
2023/02/04 04:47:39;;;;;;;18.10;9.10;;;;;;;6.90;47.94;99426.94;4996205;28;20077;-64
2023/02/04 04:50:04;;;;;;;12.38;7.57;;;;;;;6.83;48.22;99415.34;4994205;28;20039;-64
2023/02/04 04:52:30;;;;;;;11.30;7.45;;;;;;;6.76;48.36;99422.16;4996093;28;20102;-62
2023/02/04 04:54:55;;;;;;;11.30;7.72;;;;;;;6.71;48.23;99422.59;4996993;28;20221;-63
2023/02/04 04:57:21;;;;;;;12.77;7.25;;;;;;;6.73;48.83;99407.50;4994562;28;20042;-64
2023/02/04 04:59:46;;;;;;;13.95;7.80;;;;;;;6.79;49.52;99403.44;4995133;28;20117;-64
2023/02/04 05:02:12;;;;;;;12.50;7.75;;;;;;;6.67;49.52;99404.63;4994945;28;20224;-62
2023/02/04 05:04:37;;;;;;;14.13;8.23;;;;;;;6.70;50.16;99399.06;4995954;28;20042;-63
2023/02/04 05:07:03;;;;;;;11.15;8.40;;;;;;;6.77;49.95;99394.03;4995486;28;20050;-63
2023/02/04 05:09:29;;;;;;;13.98;8.80;;;;;;;6.77;50.40;99402.78;4996083;28;20093;-64
2023/02/04 05:11:55;;;;;;;15.88;8.95;;;;;;;6.90;50.43;99402.44;4995061;28;20312;-64
2023/02/04 05:14:20;;;;;;;16.08;8.85;;;;;;;6.89;50.60;99398.97;4995816;28;20030;-62
2023/02/04 05:16:46;;;;;;;23.25;11.85;;;;;;;6.82;50.29;99395.25;4995234;28;20052;-63
2023/02/04 05:19:11;;;;;;;21.50;12.20;;;;;;;6.73;50.92;99389.06;4993378;28;20042;-64
2023/02/04 05:21:37;;;;;;;15.70;10.27;;;;;;;6.79;50.28;99390.28;4994930;28;20419;-64
2023/02/04 05:24:02;;;;;;;16.98;10.15;;;;;;;6.77;50.47;99386.97;4995839;28;20038;-64
2023/02/04 05:26:28;;;;;;;15.52;9.63;;;;;;;6.74;50.73;99382.00;4994791;28;20647;-62
2023/02/04 05:28:53;;;;;;;23.00;11.13;;;;;;;6.81;50.50;99385.72;4995416;28;20040;-63
2023/02/04 05:31:18;;;;;;;32.22;14.63;;;;;;;6.91;50.28;99383.03;4994785;28;20034;-64
2023/02/04 05:33:44;;;;;;;24.00;12.38;;;;;;;6.95;49.70;99382.59;4994328;28;20042;-64
2023/02/04 05:36:09;;;;;;;25.38;12.02;;;;;;;7.02;49.36;99386.28;4994903;28;20084;-64
2023/02/04 05:38:35;;;;;;;26.35;12.57;;;;;;;7.00;50.04;99395.31;4994651;28;20034;-63
2023/02/04 05:41:00;;;;;;;36.28;15.13;;;;;;;7.05;50.11;99387.78;4994882;28;20076;-63
2023/02/04 05:43:26;;;;;;;25.63;13.95;;;;;;;7.03;50.75;99395.00;4993765;28;20348;-64
2023/02/04 05:45:51;;;;;;;22.75;10.73;;;;;;;7.10;49.33;99405.78;4996270;28;20216;-63
2023/02/04 05:48:17;;;;;;;30.40;14.88;;;;;;;7.21;49.28;99408.19;4995119;28;20088;-62
2023/02/04 05:50:42;;;;;;;25.67;13.38;;;;;;;7.16;49.59;99416.53;4996204;28;20030;-63
2023/02/04 05:53:08;;;;;;;41.10;21.85;;;;;;;7.14;49.67;99412.41;4994586;28;20096;-62
2023/02/04 05:55:34;;;;;;;35.33;18.15;;;;;;;7.19;49.23;99408.34;4995753;28;20033;-64
2023/02/04 05:57:59;;;;;;;31.75;17.88;;;;;;;7.16;50.72;99411.28;4993901;28;20046;-65
2023/02/04 06:00:25;;;;;;;19.17;10.50;;;;;;;6.72;54.14;99407.63;4995560;28;20276;-63
2023/02/04 06:02:50;;;;;;;18.75;12.50;;;;;;;6.39;57.48;99415.09;4993372;28;20139;-62
2023/02/04 06:05:17;;;;;;;24.27;12.82;;;;;;;5.69;59.70;99408.41;4994361;28;20065;-62
2023/02/04 06:07:42;;;;;;;21.63;14.15;;;;;;;5.49;60.01;99424.28;4991427;28;20043;-64
2023/02/04 06:10:09;;;;;;;21.67;11.80;;;;;;;5.89;57.60;99418.91;4993237;28;20042;-62
2023/02/04 06:12:34;;;;;;;20.50;11.82;;;;;;;6.16;56.74;99421.66;4995098;28;20093;-63
2023/02/04 06:14:59;;;;;;;20.27;11.32;;;;;;;6.39;55.78;99414.28;4994311;28;20268;-62
2023/02/04 06:17:25;;;;;;;16.33;11.13;;;;;;;6.62;54.37;99405.06;4994249;28;20097;-64
2023/02/04 06:19:51;;;;;;;19.08;11.15;;;;;;;6.76;54.32;99414.28;4993489;28;20077;-64
2023/02/04 06:22:16;;;;;;;18.40;12.68;;;;;;;6.93;52.85;99402.97;4993632;28;20042;-64
2023/02/04 06:24:42;;;;;;;15.70;11.55;;;;;;;6.98;53.14;99410.41;4991447;28;20048;-63
2023/02/04 06:27:07;;;;;;;16.98;10.23;;;;;;;6.87;54.03;99408.81;4994707;28;20046;-62
2023/02/04 06:29:32;;;;;;;13.85;9.30;;;;;;;6.67;54.85;99415.97;4994177;28;20036;-64
2023/02/04 06:31:58;;;;;;;21.77;11.73;;;;;;;6.71;56.09;99419.13;4994813;28;20051;-64
2023/02/04 06:34:23;;;;;;;22.95;14.43;;;;;;;6.88;55.11;99415.72;4993497;28;20083;-63
2023/02/04 06:36:49;;;;;;;22.33;13.27;;;;;;;7.00;55.69;99424.25;4994826;28;20027;-62
2023/02/04 06:39:14;;;;;;;19.75;11.70;;;;;;;7.07;54.48;99404.25;4993463;28;20031;-63
2023/02/04 06:41:40;;;;;;;25.02;14.38;;;;;;;7.15;53.88;99429.84;4994448;28;20110;-65
2023/02/04 06:44:05;;;;;;;20.52;10.57;;;;;;;7.02;53.43;99415.25;4993478;28;20104;-65
2023/02/04 06:46:31;;;;;;;14.10;9.77;;;;;;;7.02;53.28;99401.25;4994160;28;20351;-62
2023/02/04 06:48:56;;;;;;;13.93;8.75;;;;;;;7.04;53.09;99428.25;4994487;28;20308;-63
2023/02/04 06:51:22;;;;;;;16.73;10.00;;;;;;;6.93;53.36;99407.41;4994101;28;20041;-62
2023/02/04 06:53:47;;;;;;;15.20;9.38;;;;;;;6.99;53.18;99423.44;4991365;28;20038;-64
2023/02/04 06:56:12;;;;;;;15.68;9.73;;;;;;;7.01;53.85;99426.75;4993944;28;20046;-63
2023/02/04 06:58:38;;;;;;;17.45;10.77;;;;;;;6.97;53.58;99443.81;4994336;28;20288;-62
2023/02/04 07:01:05;;;;;;;20.33;11.10;;;;;;;7.03;53.66;99432.69;4993987;28;20034;-63
2023/02/04 07:03:30;;;;;;;20.52;11.27;;;;;;;7.02;53.54;99427.56;4996545;28;20423;-62
2023/02/04 07:05:56;;;;;;;21.90;12.38;;;;;;;7.04;53.09;99436.97;4998142;28;20035;-65
2023/02/04 07:08:21;;;;;;;16.83;10.70;;;;;;;7.06;53.73;99426.31;4997142;28;20038;-64
2023/02/04 07:10:47;;;;;;;18.20;10.30;;;;;;;7.10;54.00;99429.47;4997457;28;20042;-63
2023/02/04 07:13:12;;;;;;;25.30;12.10;;;;;;;7.16;54.10;99429.72;4997336;28;20046;-62
2023/02/04 07:15:38;;;;;;;19.10;11.00;;;;;;;7.28;54.12;99443.50;4997144;28;20046;-62
2023/02/04 07:18:03;;;;;;;21.83;12.00;;;;;;;7.21;53.71;99432.72;4997799;28;20240;-63
2023/02/04 07:20:29;;;;;;;22.15;12.63;;;;;;;7.21;54.63;99429.25;4997366;28;20038;-65
2023/02/04 07:22:54;;;;;;;20.10;12.48;;;;;;;7.15;54.56;99437.75;4997502;28;20030;-62
2023/02/04 07:25:20;;;;;;;26.52;13.52;;;;;;;7.18;55.07;99438.28;4998466;28;20042;-63
2023/02/04 07:27:45;;;;;;;23.40;13.75;;;;;;;7.21;55.22;99437.16;4998298;28;20039;-63
2023/02/04 07:30:11;;;;;;;21.55;12.38;;;;;;;7.33;54.47;99428.94;4997782;28;20041;-63
2023/02/04 07:32:37;;;;;;;21.70;12.27;;;;;;;7.50;54.67;99435.19;4998550;28;20281;-63
2023/02/04 07:35:02;;;;;;;20.95;11.75;;;;;;;7.65;54.42;99435.50;5001319;28;20189;-64
2023/02/04 07:37:28;;;;;;;19.05;11.90;;;;;;;7.82;53.48;99431.19;4999689;28;20333;-64
2023/02/04 07:39:53;;;;;;;24.95;11.27;;;;;;;7.99;52.89;99440.88;5000187;28;20038;-62
2023/02/04 07:42:19;;;;;;;22.27;12.35;;;;;;;8.09;52.47;99439.00;5000671;28;20038;-63
2023/02/04 07:44:44;;;;;;;16.25;10.60;;;;;;;8.12;52.07;99441.31;5001055;28;20104;-64
2023/02/04 07:47:10;;;;;;;15.93;7.75;;;;;;;8.12;51.76;99432.59;5000129;28;20057;-64
2023/02/04 07:49:36;;;;;;;10.30;6.22;;;;;;;7.98;51.98;99426.06;5000625;28;20044;-64
2023/02/04 07:52:01;;;;;;;11.38;6.53;;;;;;;8.10;52.06;99427.47;4999035;28;20040;-63
2023/02/04 07:54:27;;;;;;;12.98;7.30;;;;;;;8.35;51.71;99407.41;4999441;28;20770;-62
2023/02/04 07:56:52;;;;;;;13.27;7.72;;;;;;;8.56;51.16;99407.03;4999223;28;20046;-63
2023/02/04 07:59:18;;;;;;;10.93;7.22;;;;;;;8.64;50.88;99404.44;4999543;28;20088;-63
2023/02/04 08:01:43;;;;;;;9.60;7.32;;;;;;;8.96;51.03;99399.28;4998985;28;20054;-65
2023/02/04 08:04:08;;;;;;;11.57;7.10;;;;;;;8.73;51.17;99387.63;4999226;28;20054;-63
2023/02/04 08:06:34;;;;;;;7.80;6.03;;;;;;;9.02;51.41;99395.16;4999289;28;20034;-64
2023/02/04 08:08:59;;;;;;;7.90;5.03;;;;;;;9.02;51.55;99389.88;4998843;28;20026;-62
2023/02/04 08:11:25;;;;;;;4.80;4.03;;;;;;;8.92;51.89;99390.03;4999115;28;20080;-63
2023/02/04 08:13:51;;;;;;;11.30;5.00;;;;;;;8.84;52.27;99389.16;5000994;28;20031;-64
2023/02/04 08:16:17;;;;;;;8.13;4.65;;;;;;;8.67;52.65;99377.72;4999943;28;20064;-64
2023/02/04 08:18:42;;;;;;;8.73;5.07;;;;;;;8.81;53.23;99363.91;4999752;28;20034;-62
2023/02/04 08:21:07;;;;;;;13.02;5.22;;;;;;;8.82;53.50;99360.28;5000093;28;20057;-63
2023/02/04 08:23:33;;;;;;;10.20;4.50;;;;;;;8.86;52.94;99348.41;4999914;28;20046;-62
2023/02/04 08:25:58;;;;;;;5.85;4.40;;;;;;;9.05;53.25;99349.94;5000207;28;20034;-63
2023/02/04 08:28:24;;;;;;;6.53;4.10;;;;;;;8.97;53.64;99336.72;5000762;28;20057;-62
2023/02/04 08:30:50;;;;;;;6.30;3.92;;;;;;;9.09;53.34;99342.53;4999653;28;20142;-63
2023/02/04 08:33:16;;;;;;;8.10;4.70;;;;;;;9.09;53.26;99332.78;5000757;28;20038;-63
2023/02/04 08:35:42;;;;;;;5.57;3.45;;;;;;;9.26;53.17;99331.00;5000521;28;20370;-66
2023/02/04 08:38:07;;;;;;;4.28;3.75;;;;;;;9.39;53.10;99312.03;5000258;28;20038;-65
2023/02/04 08:40:33;;;;;;;5.65;2.40;;;;;;;9.52;51.62;99309.72;5000360;28;20034;-61
2023/02/04 08:42:58;;;;;;;4.07;2.35;;;;;;;9.54;51.15;99313.03;4999623;28;20322;-61
2023/02/04 08:45:24;;;;;;;2.90;1.92;;;;;;;9.63;50.44;99303.28;4998641;28;20049;-62
2023/02/04 08:47:49;;;;;;;4.05;2.38;;;;;;;9.73;50.34;99309.22;4999094;28;20340;-62
2023/02/04 08:50:15;;;;;;;4.28;1.83;;;;;;;9.85;49.98;99313.16;4999541;28;20042;-61
2023/02/04 08:52:40;;;;;;;5.65;3.15;;;;;;;10.03;50.84;99312.97;5000021;28;20212;-64
2023/02/04 08:55:06;;;;;;;3.88;2.22;;;;;;;10.22;49.10;99321.38;4999816;28;20038;-61
2023/02/04 08:57:33;;;;;;;2.55;1.40;;;;;;;10.33;47.27;99308.78;4999544;28;20344;-62
2023/02/04 08:59:59;;;;;;;4.47;1.10;;;;;;;10.14;45.67;99315.25;4999421;28;20030;-61
2023/02/04 09:02:24;;;;;;;6.43;1.48;;;;;;;10.15;46.15;99308.97;4999724;28;20356;-62
2023/02/04 09:04:50;;;;;;;2.75;1.48;;;;;;;10.31;46.14;99316.06;5000440;28;20213;-62
2023/02/04 09:07:15;;;;;;;2.15;1.40;;;;;;;10.46;45.10;99304.63;4999491;28;20034;-62
2023/02/04 09:09:41;;;;;;;4.30;1.75;;;;;;;10.48;45.12;99310.56;4999248;28;20244;-62
2023/02/04 09:12:06;;;;;;;2.83;1.40;;;;;;;10.63;44.62;99309.84;4999954;28;20045;-63
2023/02/04 09:14:32;;;;;;;2.17;1.60;;;;;;;10.85;44.79;99315.19;4999389;28;20502;-64
2023/02/04 09:16:57;;;;;;;1.67;1.33;;;;;;;10.90;43.60;99301.41;4999143;28;20363;-62
2023/02/04 09:19:24;;;;;;;2.00;1.38;;;;;;;11.04;43.30;99302.47;4999500;28;20050;-61
2023/02/04 09:21:53;;;;;;;1.33;1.20;;;;;;;11.17;43.02;99300.06;4999789;28;20038;-61
2023/02/04 09:24:19;;;;;;;2.05;1.70;;;;;;;11.06;42.43;99308.44;4998887;28;20038;-61
2023/02/04 09:26:44;;;;;;;2.22;1.30;;;;;;;10.80;42.45;99295.50;4999359;28;20327;-61
2023/02/04 09:29:09;;;;;;;2.22;1.30;;;;;;;10.56;43.12;99296.47;4999357;28;20022;-64
2023/02/04 09:31:35;;;;;;;2.78;1.55;;;;;;;10.39;43.86;99292.22;4999057;28;20033;-61
2023/02/04 09:34:00;;;;;;;2.45;2.00;;;;;;;10.46;44.72;99293.19;4999082;28;20031;-61
2023/02/04 09:36:29;;;;;;;2.33;1.83;;;;;;;10.29;45.47;99281.00;4999214;28;20247;-61
2023/02/04 09:38:54;;;;;;;3.22;2.22;;;;;;;10.17;45.77;99286.63;4998900;28;20037;-62
2023/02/04 09:41:20;;;;;;;1.73;1.55;;;;;;;9.97;45.33;99284.53;4998591;28;20263;-62
2023/02/04 09:43:45;;;;;;;3.70;1.55;;;;;;;10.04;44.39;99281.06;4997041;28;20332;-63
2023/02/04 09:46:22;;;;;;;2.08;1.60;;;;;;;9.93;45.03;99270.84;4997340;28;20378;-62
2023/02/04 09:48:49;;;;;;;3.80;2.10;;;;;;;9.97;45.23;99266.84;4996069;28;20046;-62
2023/02/04 09:51:19;;;;;;;1.67;1.52;;;;;;;9.90;45.02;99260.59;4997804;28;20252;-62
2023/02/04 09:53:47;;;;;;;2.65;1.52;;;;;;;9.87;44.72;99259.13;4997140;28;20528;-62
2023/02/04 09:56:13;;;;;;;4.45;2.28;;;;;;;10.01;43.42;99240.88;4997316;28;20068;-62
2023/02/04 09:58:40;;;;;;;3.28;1.38;;;;;;;10.00;43.92;99244.53;4999113;28;20061;-63
2023/02/04 10:01:13;;;;;;;3.30;3.00;;;;;;;9.91;43.67;99231.34;4995868;28;20081;-62
2023/02/04 10:03:46;;;;;;;2.08;1.67;;;;;;;9.81;43.26;99230.72;4994623;28;20057;-63
2023/02/04 10:06:19;;;;;;;3.47;2.10;;;;;;;9.96;43.54;99224.72;4995765;28;20105;-61
2023/02/04 10:08:47;;;;;;;3.28;1.88;;;;;;;10.07;44.38;99221.69;4994633;28;20060;-62
2023/02/04 10:11:14;;;;;;;2.67;2.17;;;;;;;10.22;45.08;99220.84;4994111;28;20114;-62
2023/02/04 10:13:49;;;;;;;5.53;2.47;;;;;;;10.50;45.10;99218.56;4994839;28;20235;-63
2023/02/04 10:16:28;;;;;;;1.50;1.40;;;;;;;10.58;41.84;99212.41;4994461;28;20072;-64
2023/02/04 10:18:56;;;;;;;3.03;1.80;;;;;;;10.57;41.49;99209.94;4993316;28;20034;-62
2023/02/04 10:21:31;;;;;;;3.83;1.40;;;;;;;10.68;41.23;99183.88;4994611;28;20030;-63
2023/02/04 10:24:00;;;;;;;4.00;1.92;;;;;;;10.82;41.34;99206.94;4994182;28;20038;-62
2023/02/04 10:26:28;;;;;;;2.10;1.17;;;;;;;10.76;40.37;99202.34;4994163;28;20255;-62
2023/02/04 10:29:01;;;;;;;2.92;1.33;;;;;;;10.92;41.52;99212.00;4994056;28;20064;-63
2023/02/04 10:31:28;;;;;;;4.25;1.30;;;;;;;10.91;41.70;99209.53;4991558;28;20113;-64
2023/02/04 10:34:08;;;;;;;1.40;1.25;;;;;;;10.97;41.10;99203.53;4991613;28;20026;-62
2023/02/04 10:36:34;;;;;;;4.05;1.63;;;;;;;11.05;42.39;99198.97;4991776;28;20046;-62
2023/02/04 10:39:05;;;;;;;1.52;1.08;;;;;;;11.08;41.01;99193.31;4992799;28;20045;-62
2023/02/04 10:41:33;;;;;;;1.90;1.35;;;;;;;11.10;41.28;99183.38;4992573;28;20041;-62
2023/02/04 10:44:08;;;;;;;5.10;1.20;;;;;;;10.91;41.71;99185.69;4993891;28;20065;-62
2023/02/04 10:46:34;;;;;;;2.00;1.60;;;;;;;10.98;41.98;99183.97;4993829;28;20052;-65
2023/02/04 10:48:59;;;;;;;1.90;1.20;;;;;;;11.00;41.48;99181.97;4989730;28;20027;-65
2023/02/04 10:51:25;;;;;;;6.10;2.67;;;;;;;11.15;42.70;99164.28;4984681;28;20098;-63
2023/02/04 10:56:34;;;;;;;1.90;1.30;;;;;;;11.12;41.95;99172.59;4983227;28;20050;-63
2023/02/04 10:59:00;;;;;;;2.58;1.48;;;;;;;11.05;41.82;99161.06;4990071;28;20038;-65
2023/02/04 11:01:27;;;;;;;1.63;1.23;;;;;;;11.00;41.56;99150.19;4983248;28;20244;-62
2023/02/04 11:03:53;;;;;;;1.80;1.27;;;;;;;10.86;42.86;99149.97;4982530;28;20054;-63
2023/02/04 11:06:21;;;;;;;4.22;1.70;;;;;;;10.97;43.43;99154.00;4983816;28;20037;-63
2023/02/04 11:08:49;;;;;;;1.27;1.17;;;;;;;10.77;43.54;99148.38;4981189;28;20040;-63
2023/02/04 11:11:18;;;;;;;2.65;1.40;;;;;;;10.80;43.94;99139.25;4990758;28;20038;-62
2023/02/04 11:14:03;;;;;;;4.88;1.90;;;;;;;10.74;43.92;99129.38;4988506;28;20034;-64
2023/02/04 11:16:45;;;;;;;2.58;1.52;;;;;;;10.66;44.98;99132.91;4988569;28;20062;-64
2023/02/04 11:19:12;;;;;;;2.63;1.52;;;;;;;10.26;45.46;99136.63;4984873;28;20058;-63
2023/02/04 11:21:37;;;;;;;1.88;1.58;;;;;;;10.14;45.92;99138.00;4985301;28;20039;-62
2023/02/04 11:24:14;;;;;;;2.45;1.52;;;;;;;10.17;46.85;99145.59;4982570;28;20273;-64
2023/02/04 11:26:48;;;;;;;2.15;1.30;;;;;;;10.11;46.36;99144.47;4984635;28;20046;-62
2023/02/04 11:29:36;;;;;;;3.17;1.38;;;;;;;10.02;47.13;99144.69;4985713;28;20102;-62
2023/02/04 11:32:26;;;;;;;1.20;1.10;;;;;;;9.95;47.14;99136.59;4987431;28;20049;-64